createdAt,value
2018-12-12T00:01:57.297Z,3.30
2018-12-12T00:04:27.949Z,1.37
2018-12-12T00:06:58.696Z,4.20
2018-12-12T00:09:29.300Z,3.33
2018-12-12T00:12:00.103Z,3.00
2018-12-12T00:14:30.394Z,2.23
2018-12-12T00:17:01.432Z,2.63
2018-12-12T00:19:32.144Z,1.97
2018-12-12T00:22:02.922Z,1.50
2018-12-12T00:24:33.451Z,4.00
2018-12-12T00:27:04.204Z,1.70
2018-12-12T00:29:36.249Z,1.03
2018-12-12T00:32:07.084Z,1.73
2018-12-12T00:34:37.604Z,2.70
2018-12-12T00:37:07.969Z,2.03
2018-12-12T00:39:40.413Z,1.40
2018-12-12T00:42:11.715Z,1.67
2018-12-12T00:44:42.552Z,1.83
2018-12-12T00:47:13.738Z,3.03
2018-12-12T00:49:45.747Z,2.30
2018-12-12T00:52:16.867Z,2.13
2018-12-12T00:54:47.591Z,1.50
2018-12-12T00:57:18.829Z,2.60
2018-12-12T00:59:50.091Z,2.10
2018-12-12T01:02:20.630Z,2.10
2018-12-12T01:04:51.179Z,1.60
2018-12-12T01:07:22.585Z,2.20
2018-12-12T01:09:54.108Z,3.53
2018-12-12T01:12:24.823Z,2.13
2018-12-12T01:14:55.723Z,2.60
2018-12-12T01:17:26.644Z,1.47
2018-12-12T01:19:57.642Z,1.97
2018-12-12T01:22:28.281Z,2.03
2018-12-12T01:24:59.014Z,1.13
2018-12-12T01:27:29.731Z,0.70
2018-12-12T01:30:00.401Z,1.60
2018-12-12T01:32:31.112Z,1.70
2018-12-12T01:35:01.681Z,1.93
2018-12-12T01:37:33.319Z,1.17
2018-12-12T01:40:05.686Z,1.50
2018-12-12T01:42:36.291Z,1.23
2018-12-12T01:45:07.438Z,1.70
2018-12-12T01:47:38.336Z,1.10
2018-12-12T01:50:09.580Z,1.00
2018-12-12T01:52:40.154Z,3.43
2018-12-12T01:55:10.916Z,0.93
2018-12-12T01:57:41.604Z,0.60
2018-12-12T02:00:12.744Z,0.60
2018-12-12T02:02:43.376Z,1.17
2018-12-12T02:05:13.962Z,0.80
2018-12-12T02:07:44.999Z,1.60
2018-12-12T02:10:16.179Z,6.50
2018-12-12T02:12:53.071Z,8.20
2018-12-12T02:15:24.800Z,3.30
2018-12-12T02:17:55.049Z,2.10
2018-12-12T02:20:27.079Z,3.20
2018-12-12T02:22:58.044Z,1.90
2018-12-12T02:25:29.459Z,3.10
2018-12-12T02:27:59.366Z,3.40
2018-12-12T02:30:30.253Z,2.83
2018-12-12T02:33:00.800Z,2.63
2018-12-12T02:35:31.395Z,2.10
2018-12-12T02:38:01.991Z,2.13
2018-12-12T02:40:33.048Z,2.83
2018-12-12T02:43:03.918Z,2.00
2018-12-12T02:45:34.986Z,2.27
2018-12-12T02:48:06.055Z,2.37
2018-12-12T02:50:37.079Z,2.53
2018-12-12T02:53:08.099Z,2.20
2018-12-12T02:55:39.090Z,1.97
2018-12-12T02:58:09.790Z,2.43
2018-12-12T03:00:40.653Z,2.90
2018-12-12T03:03:11.054Z,2.50
2018-12-12T03:05:41.990Z,1.30
2018-12-12T03:08:12.875Z,1.57
2018-12-12T03:10:44.342Z,3.23
2018-12-12T03:13:14.929Z,4.10
2018-12-12T03:15:45.449Z,3.00
2018-12-12T03:18:16.341Z,3.50
2018-12-12T03:20:47.869Z,4.07
2018-12-12T03:23:18.660Z,5.23
2018-12-12T03:25:49.217Z,4.63
2018-12-12T03:28:20.025Z,6.67
2018-12-12T03:30:51.364Z,4.63
2018-12-12T03:33:22.091Z,6.13
2018-12-12T03:35:52.579Z,3.27
2018-12-12T03:38:23.523Z,3.63
2018-12-12T03:40:56.458Z,3.60
2018-12-12T03:43:26.962Z,3.10
2018-12-12T03:45:57.899Z,3.27
2018-12-12T03:48:28.304Z,2.63
2018-12-12T03:50:59.713Z,4.57
2018-12-12T03:53:30.608Z,4.10
2018-12-12T03:56:01.426Z,5.13
2018-12-12T03:58:33.300Z,3.40
2018-12-12T04:01:04.472Z,5.63
2018-12-12T04:03:35.289Z,3.10
2018-12-12T04:06:06.022Z,3.40
2018-12-12T04:08:36.706Z,3.10
2018-12-12T04:11:07.773Z,4.17
2018-12-12T04:13:38.525Z,2.80
2018-12-12T04:16:09.616Z,4.20
2018-12-12T04:18:41.044Z,4.97
2018-12-12T04:21:12.295Z,3.43
2018-12-12T04:23:42.765Z,4.00
2018-12-12T04:26:13.956Z,4.33
2018-12-12T04:28:44.604Z,4.17
2018-12-12T04:31:15.689Z,4.50
2018-12-12T04:33:46.504Z,3.77
2018-12-12T04:36:17.168Z,4.77
2018-12-12T04:38:47.712Z,5.77
2018-12-12T04:41:19.385Z,11.10
2018-12-12T04:43:49.970Z,9.70
2018-12-12T04:46:20.500Z,10.57
2018-12-12T04:48:51.478Z,8.90
2018-12-12T04:51:22.658Z,8.60
2018-12-12T04:53:53.687Z,8.10
2018-12-12T04:56:24.572Z,7.87
2018-12-12T04:58:55.907Z,8.00
2018-12-12T05:01:27.065Z,5.50
2018-12-12T05:03:58.272Z,6.40
2018-12-12T05:06:29.256Z,6.50
2018-12-12T05:08:59.680Z,4.00
2018-12-12T05:11:30.607Z,4.87
2018-12-12T05:14:01.849Z,4.87
2018-12-12T05:16:32.323Z,3.83
2018-12-12T05:19:03.220Z,3.63
2018-12-12T05:21:34.374Z,3.17
2018-12-12T05:24:05.499Z,5.07
2018-12-12T05:26:36.407Z,5.90
2018-12-12T05:29:07.139Z,8.33
2018-12-12T05:31:37.669Z,8.17
2018-12-12T05:34:08.685Z,5.13
2018-12-12T05:36:39.277Z,6.40
2018-12-12T05:39:10.140Z,7.30
2018-12-12T05:41:41.392Z,12.50
2018-12-12T05:44:12.014Z,14.20
2018-12-12T05:46:43.075Z,12.50
2018-12-12T05:49:13.055Z,14.30
2018-12-12T05:51:43.498Z,26.67
2018-12-12T05:54:14.470Z,25.40
2018-12-12T05:56:45.305Z,23.40
2018-12-12T05:59:15.963Z,17.83
2018-12-12T06:01:47.048Z,29.40
2018-12-12T06:04:17.430Z,33.00
2018-12-12T06:06:47.885Z,24.37
2018-12-12T06:09:18.389Z,24.17
2018-12-12T06:11:49.684Z,21.43
2018-12-12T06:14:20.224Z,19.20
2018-12-12T06:16:50.171Z,10.60
2018-12-12T06:19:19.898Z,20.90
2018-12-12T06:21:51.548Z,21.60
2018-12-12T06:24:22.288Z,19.83
2018-12-12T06:26:53.125Z,22.37
2018-12-12T06:29:23.883Z,29.30
2018-12-12T06:31:54.558Z,26.40
2018-12-12T06:34:25.165Z,30.63
2018-12-12T06:36:56.225Z,19.23
2018-12-12T06:39:26.858Z,18.97
2018-12-12T06:41:58.370Z,19.00
2018-12-12T06:44:29.014Z,14.43
2018-12-12T06:46:59.676Z,14.60
2018-12-12T06:49:30.374Z,13.40
2018-12-12T06:52:01.371Z,13.90
2018-12-12T06:54:31.809Z,12.97
2018-12-12T06:57:02.687Z,13.53
2018-12-12T06:59:33.196Z,15.80
2018-12-12T07:02:04.221Z,16.70
2018-12-12T07:04:34.679Z,15.17
2018-12-12T07:07:05.808Z,14.10
2018-12-12T07:09:36.230Z,13.93
2018-12-12T07:12:07.648Z,10.03
2018-12-12T07:14:38.161Z,11.70
2018-12-12T07:17:08.688Z,9.33
2018-12-12T07:19:39.581Z,13.57
2018-12-12T07:22:10.750Z,12.80
2018-12-12T07:24:41.764Z,13.90
2018-12-12T07:27:12.609Z,15.23
2018-12-12T07:29:43.109Z,12.73
2018-12-12T07:32:14.302Z,13.47
2018-12-12T07:34:44.240Z,13.27
2018-12-12T07:37:14.067Z,14.97
2018-12-12T07:39:44.025Z,14.63
2018-12-12T07:42:14.457Z,13.27
2018-12-12T07:44:44.419Z,17.27
2018-12-12T07:47:14.477Z,9.23
2018-12-12T07:49:44.526Z,7.03
2018-12-12T07:52:14.644Z,11.60
2018-12-12T07:54:44.375Z,14.60
2018-12-12T07:57:14.223Z,17.93
2018-12-12T07:59:44.144Z,10.17
2018-12-12T08:02:14.115Z,9.47
2018-12-12T08:04:44.067Z,11.10
2018-12-12T08:07:14.045Z,7.27
2018-12-12T08:09:43.976Z,8.50
2018-12-12T08:12:14.426Z,8.10
2018-12-12T08:14:44.273Z,10.10
2018-12-12T08:17:14.286Z,11.17
2018-12-12T08:19:44.848Z,16.33
2018-12-12T08:22:16.411Z,18.57
2018-12-12T08:24:47.205Z,14.90
2018-12-12T08:27:18.167Z,15.33
2018-12-12T08:29:48.615Z,14.07
2018-12-12T08:32:20.590Z,13.40
2018-12-12T08:34:51.002Z,12.87
2018-12-12T08:37:21.882Z,13.17
2018-12-12T08:39:52.482Z,10.03
2018-12-12T08:42:23.709Z,9.07
2018-12-12T08:44:54.366Z,9.70
2018-12-12T08:47:25.204Z,14.13
2018-12-12T08:49:55.899Z,8.40
2018-12-12T08:52:26.530Z,7.73
2018-12-12T08:54:57.052Z,9.00
2018-12-12T08:57:27.857Z,10.33
2018-12-12T08:59:58.426Z,7.50
2018-12-12T09:02:29.143Z,6.07
2018-12-12T09:04:59.775Z,7.70
2018-12-12T09:07:30.541Z,3.97
2018-12-12T09:10:01.140Z,3.93
2018-12-12T09:12:32.893Z,3.83
2018-12-12T09:15:03.447Z,5.40
2018-12-12T09:17:34.042Z,5.07
2018-12-12T09:20:04.584Z,5.10
2018-12-12T09:22:35.200Z,6.40
2018-12-12T09:25:05.934Z,3.03
2018-12-12T09:27:36.506Z,4.53
2018-12-12T09:30:07.106Z,6.67
2018-12-12T09:32:37.960Z,10.60
2018-12-12T09:35:08.676Z,10.10
2018-12-12T09:37:39.227Z,8.83
2018-12-12T09:40:10.028Z,11.23
2018-12-12T09:42:40.700Z,8.80
2018-12-12T09:45:11.906Z,9.60
2018-12-12T09:47:43.109Z,10.50
2018-12-12T09:50:13.860Z,8.90
2018-12-12T09:52:45.665Z,10.77
2018-12-12T09:55:16.553Z,11.10
2018-12-12T09:57:47.158Z,9.90
2018-12-12T10:00:17.774Z,12.40
2018-12-12T10:02:49.816Z,10.10
2018-12-12T10:05:20.926Z,10.23
2018-12-12T10:07:51.484Z,10.63
2018-12-12T10:10:21.923Z,10.10
2018-12-12T10:12:53.208Z,10.00
2018-12-12T10:15:24.340Z,9.23
2018-12-12T10:17:55.087Z,7.30
2018-12-12T10:20:25.574Z,10.70
2018-12-12T10:22:56.650Z,15.30
2018-12-12T10:25:27.118Z,8.50
2018-12-12T10:27:57.688Z,5.27
2018-12-12T10:30:28.591Z,7.73
2018-12-12T10:33:00.268Z,8.13
2018-12-12T10:35:31.500Z,8.30
2018-12-12T10:38:02.351Z,7.77
2018-12-12T10:40:33.729Z,9.00
2018-12-12T10:43:04.813Z,8.67
2018-12-12T10:45:35.403Z,7.20
2018-12-12T10:48:06.134Z,8.37
2018-12-12T10:50:36.540Z,10.00
2018-12-12T10:53:09.658Z,9.80
2018-12-12T10:55:40.700Z,9.90
2018-12-12T10:58:11.477Z,11.20
2018-12-12T11:00:46.355Z,11.00
2018-12-12T11:03:21.800Z,7.60
2018-12-12T11:05:52.318Z,8.70
2018-12-12T11:08:22.840Z,14.90
2018-12-12T11:10:53.485Z,30.83
2018-12-12T11:13:23.908Z,10.63
2018-12-12T11:15:54.644Z,11.90
2018-12-12T11:18:24.959Z,8.63
2018-12-12T11:20:56.038Z,9.67
2018-12-12T11:23:26.278Z,10.93
2018-12-12T11:25:56.808Z,12.00
2018-12-12T11:28:27.542Z,6.97
2018-12-12T11:30:58.272Z,3.40
2018-12-12T11:33:28.932Z,6.43
2018-12-12T11:35:59.240Z,5.00
2018-12-12T11:38:29.792Z,11.57
2018-12-12T11:41:01.349Z,5.67
2018-12-12T11:43:32.099Z,5.03
2018-12-12T11:46:02.523Z,4.57
2018-12-12T11:48:32.883Z,7.37
2018-12-12T11:51:04.496Z,2.93
2018-12-12T11:53:34.872Z,3.50
2018-12-12T11:56:05.199Z,3.40
2018-12-12T11:58:35.491Z,3.67
2018-12-12T12:01:07.216Z,3.07
2018-12-12T12:03:37.714Z,2.40
2018-12-12T12:06:08.413Z,1.90
2018-12-12T12:08:39.003Z,1.43
2018-12-12T12:11:10.651Z,2.20
2018-12-12T12:13:41.364Z,2.40
2018-12-12T12:16:11.874Z,4.10
2018-12-12T12:18:42.107Z,3.27
2018-12-12T12:21:13.050Z,3.10
2018-12-12T12:23:43.381Z,4.10
2018-12-12T12:26:14.388Z,5.43
2018-12-12T12:28:44.873Z,4.90
2018-12-12T12:31:16.469Z,4.47
2018-12-12T12:33:46.572Z,6.20
2018-12-12T12:36:16.389Z,7.50
2018-12-12T12:38:46.311Z,10.27
2018-12-12T12:41:17.492Z,8.40
2018-12-12T12:43:47.453Z,8.90
2018-12-12T12:46:17.282Z,7.63
2018-12-12T12:48:47.251Z,8.67
2018-12-12T12:51:17.062Z,11.00
2018-12-12T12:53:47.303Z,13.90
2018-12-12T12:56:18.183Z,25.17
2018-12-12T12:58:48.694Z,29.37
2018-12-12T13:01:19.986Z,35.50
2018-12-12T13:03:50.667Z,40.60
2018-12-12T13:06:20.544Z,33.43
2018-12-12T13:08:50.305Z,29.77
2018-12-12T13:11:20.197Z,24.73
2018-12-12T13:13:50.181Z,34.10
2018-12-12T13:16:20.177Z,30.50
2018-12-12T13:18:50.100Z,26.90
2018-12-12T13:21:20.066Z,18.60
2018-12-12T13:23:49.966Z,27.17
2018-12-12T13:26:19.950Z,28.10
2018-12-12T13:28:49.857Z,15.60
2018-12-12T13:31:19.803Z,13.47
2018-12-12T13:33:49.641Z,10.83
2018-12-12T13:36:19.594Z,7.30
2018-12-12T13:38:50.627Z,6.00
2018-12-12T13:41:20.847Z,1.90
2018-12-12T13:43:50.682Z,5.90
2018-12-12T13:46:20.604Z,6.73
2018-12-12T13:48:50.591Z,7.97
2018-12-12T13:51:20.654Z,12.30
2018-12-12T13:53:50.545Z,15.37
2018-12-12T13:56:20.408Z,14.80
2018-12-12T13:58:50.354Z,14.13
2018-12-12T14:01:20.384Z,17.97
2018-12-12T14:03:50.259Z,21.17
2018-12-12T14:06:20.119Z,23.13
2018-12-12T14:08:50.079Z,19.30
2018-12-12T14:11:20.016Z,13.03
2018-12-12T14:13:49.809Z,15.70
2018-12-12T14:16:20.202Z,23.10
2018-12-12T14:18:50.960Z,19.97
2018-12-12T14:21:21.826Z,12.80
2018-12-12T14:23:52.576Z,12.77
2018-12-12T14:26:23.173Z,13.90
2018-12-12T14:28:53.852Z,12.43
2018-12-12T14:31:25.294Z,11.40
2018-12-12T14:33:56.326Z,8.27
2018-12-12T14:36:26.960Z,10.50
2018-12-12T14:38:57.803Z,7.77
2018-12-12T14:41:29.057Z,21.10
2018-12-12T14:44:00.292Z,19.63
2018-12-12T14:46:31.093Z,17.50
2018-12-12T14:49:01.889Z,13.00
2018-12-12T14:51:34.358Z,17.00
2018-12-12T14:54:04.641Z,17.27
2018-12-12T14:56:35.144Z,17.40
2018-12-12T14:59:05.894Z,27.90
2018-12-12T15:01:37.907Z,22.20
2018-12-12T15:04:09.021Z,15.70
2018-12-12T15:06:40.016Z,11.97
2018-12-12T15:09:09.984Z,12.07
2018-12-12T15:11:40.331Z,12.33
2018-12-12T15:14:11.202Z,11.70
2018-12-12T15:16:41.829Z,11.83
2018-12-12T15:19:12.531Z,12.30
2018-12-12T15:21:44.044Z,15.77
2018-12-12T15:24:15.431Z,33.77
2018-12-12T15:26:46.203Z,20.30
2018-12-12T15:29:16.431Z,16.60
2018-12-12T15:31:48.227Z,9.67
2018-12-12T15:34:19.332Z,11.70
2018-12-12T15:36:50.108Z,14.97
2018-12-12T15:39:20.764Z,22.90
2018-12-12T15:41:53.083Z,16.80
2018-12-12T15:44:23.726Z,10.83
2018-12-12T15:46:54.751Z,5.73
2018-12-12T15:49:26.243Z,13.97
2018-12-12T15:51:57.558Z,39.03
2018-12-12T15:54:28.034Z,25.17
2018-12-12T15:56:59.832Z,16.57
2018-12-12T15:59:31.125Z,21.60
2018-12-12T16:02:02.061Z,23.63
2018-12-12T16:04:32.603Z,40.03
2018-12-12T16:07:02.982Z,28.10
2018-12-12T16:09:33.518Z,33.00
2018-12-12T16:12:05.706Z,24.80
2018-12-12T16:14:36.095Z,24.27
2018-12-12T16:17:06.639Z,36.40
2018-12-12T16:19:37.552Z,34.67
2018-12-12T16:22:09.135Z,33.77
2018-12-12T16:24:40.326Z,35.13
2018-12-12T16:27:10.887Z,33.40
2018-12-12T16:29:41.134Z,26.40
2018-12-12T16:32:12.870Z,31.87
2018-12-12T16:34:44.175Z,104.03
2018-12-12T16:37:14.961Z,103.97
2018-12-12T16:39:45.273Z,86.63
2018-12-12T16:42:16.123Z,64.13
2018-12-12T16:44:47.440Z,79.93
2018-12-12T16:47:17.556Z,81.87
2018-12-12T16:49:47.991Z,52.90
2018-12-12T16:52:20.239Z,50.93
2018-12-12T16:54:49.810Z,40.67
2018-12-12T16:57:20.871Z,36.40
2018-12-12T16:59:51.690Z,33.27
2018-12-12T17:02:23.190Z,31.33
2018-12-12T17:04:53.734Z,24.87
2018-12-12T17:07:24.698Z,29.57
2018-12-12T17:09:55.075Z,28.10
2018-12-12T17:12:26.334Z,34.40
2018-12-12T17:14:57.291Z,31.83
2018-12-12T17:17:28.160Z,43.30
2018-12-12T17:19:59.215Z,58.83
2018-12-12T17:22:30.734Z,51.40
2018-12-12T17:25:01.442Z,46.10
2018-12-12T17:27:32.706Z,36.53
2018-12-12T17:30:03.475Z,32.70
2018-12-12T17:32:34.319Z,30.07
2018-12-12T17:35:08.875Z,33.23
2018-12-12T17:37:37.893Z,26.97
2018-12-12T17:40:08.560Z,28.17
2018-12-12T17:42:39.494Z,21.73
2018-12-12T17:45:10.021Z,22.80
2018-12-12T17:47:40.305Z,28.03
2018-12-12T17:50:10.849Z,28.80
2018-12-12T17:52:41.985Z,71.50
2018-12-12T17:55:12.178Z,53.53
2018-12-12T17:57:42.831Z,41.93
2018-12-12T18:00:13.800Z,44.60
2018-12-12T18:02:44.596Z,47.77
2018-12-12T18:05:15.329Z,46.50
2018-12-12T18:07:45.260Z,41.40
2018-12-12T18:10:15.912Z,34.73
2018-12-12T18:12:49.991Z,40.20
2018-12-12T18:15:20.594Z,40.57
2018-12-12T18:17:51.258Z,38.67
2018-12-12T18:20:21.779Z,36.37
2018-12-12T18:22:53.047Z,37.00
2018-12-12T18:25:23.642Z,39.60
2018-12-12T18:27:54.174Z,39.37
2018-12-12T18:30:24.791Z,33.53
2018-12-12T18:32:56.445Z,29.17
2018-12-12T18:35:27.137Z,30.27
2018-12-12T18:37:57.272Z,32.57
2018-12-12T18:40:27.744Z,38.90
2018-12-12T18:42:59.382Z,36.30
2018-12-12T18:45:30.274Z,38.10
2018-12-12T18:48:00.905Z,38.07
2018-12-12T18:50:31.987Z,35.70
2018-12-12T18:53:03.499Z,29.00
2018-12-12T18:55:34.230Z,35.17
2018-12-12T18:58:05.372Z,33.10
2018-12-12T19:00:36.310Z,33.57
2018-12-12T19:03:07.849Z,30.23
2018-12-12T19:05:38.644Z,32.27
2018-12-12T19:08:09.332Z,36.20
2018-12-12T19:10:40.713Z,29.10
2018-12-12T19:13:12.643Z,28.13
2018-12-12T19:15:43.240Z,25.23
2018-12-12T19:18:14.032Z,25.20
2018-12-12T19:20:44.874Z,27.67
2018-12-12T19:23:15.902Z,22.33
2018-12-12T19:25:46.723Z,20.80
2018-12-12T19:28:17.527Z,19.17
2018-12-12T19:30:48.371Z,19.53
2018-12-12T19:33:19.698Z,17.17
2018-12-12T19:35:50.144Z,23.30
2018-12-12T19:38:21.731Z,18.33
2018-12-12T19:40:52.390Z,17.90
2018-12-12T19:43:24.165Z,17.27
2018-12-12T19:45:55.040Z,12.40
2018-12-12T19:48:25.648Z,13.67
2018-12-12T19:50:56.171Z,14.17
2018-12-12T19:53:26.793Z,12.10
2018-12-12T19:55:57.453Z,11.13
2018-12-12T19:58:28.722Z,13.00
2018-12-12T20:00:59.257Z,15.90
2018-12-12T20:03:30.316Z,20.70
2018-12-12T20:06:01.002Z,24.87
2018-12-12T20:08:31.844Z,18.27
2018-12-12T20:11:02.053Z,42.93
2018-12-12T20:13:33.606Z,25.10
2018-12-12T20:16:04.398Z,39.57
2018-12-12T20:18:34.976Z,46.40
2018-12-12T20:21:05.398Z,28.87
2018-12-12T20:23:36.378Z,31.73
2018-12-12T20:26:06.796Z,31.13
2018-12-12T20:28:37.358Z,21.93
2018-12-12T20:31:07.899Z,19.23
2018-12-12T20:33:38.454Z,25.93
2018-12-12T20:36:09.091Z,27.37
2018-12-12T20:38:39.388Z,27.23
2018-12-12T20:41:09.719Z,26.27
2018-12-12T20:43:41.033Z,25.40
2018-12-12T20:46:11.357Z,24.83
2018-12-12T20:48:41.847Z,27.03
2018-12-12T20:51:12.452Z,22.77
2018-12-12T20:53:43.259Z,31.30
2018-12-12T20:56:13.802Z,28.67
2018-12-12T20:58:44.423Z,44.83
2018-12-12T21:01:14.845Z,38.43
2018-12-12T21:03:45.843Z,49.17
2018-12-12T21:06:16.555Z,40.57
2018-12-12T21:08:46.833Z,38.00
2018-12-12T21:11:17.156Z,44.00
2018-12-12T21:13:48.964Z,43.70
2018-12-12T21:16:19.422Z,41.50
2018-12-12T21:18:50.062Z,35.57
2018-12-12T21:21:20.988Z,32.30
2018-12-12T21:23:52.211Z,37.30
2018-12-12T21:26:23.233Z,27.83
2018-12-12T21:28:53.981Z,32.13
2018-12-12T21:31:24.717Z,29.87
2018-12-12T21:33:55.495Z,30.93
2018-12-12T21:36:26.053Z,29.90
2018-12-12T21:38:56.655Z,28.50
2018-12-12T21:41:27.298Z,31.57
2018-12-12T21:43:58.603Z,27.60
2018-12-12T21:46:28.902Z,26.00
2018-12-12T21:48:59.296Z,23.70
2018-12-12T21:51:29.742Z,19.27
2018-12-12T21:54:00.255Z,17.77
2018-12-12T21:56:30.872Z,19.93
2018-12-12T21:59:01.484Z,17.07
2018-12-12T22:01:31.736Z,17.23
2018-12-12T22:04:02.552Z,14.20
2018-12-12T22:06:33.082Z,14.50
2018-12-12T22:09:05.509Z,13.37
2018-12-12T22:11:36.004Z,11.23
2018-12-12T22:14:06.942Z,11.80
2018-12-12T22:16:37.575Z,13.90
2018-12-12T22:19:08.071Z,11.80
2018-12-12T22:21:38.402Z,17.27
2018-12-12T22:24:09.813Z,20.93
2018-12-12T22:26:40.370Z,19.73
2018-12-12T22:29:10.934Z,25.17
2018-12-12T22:31:41.593Z,16.53
2018-12-12T22:34:12.503Z,22.63
2018-12-12T22:36:43.041Z,19.60
2018-12-12T22:39:13.673Z,20.80
2018-12-12T22:41:44.478Z,17.10
2018-12-12T22:44:16.839Z,12.27
2018-12-12T22:46:47.156Z,13.47
2018-12-12T22:49:17.479Z,19.60
2018-12-12T22:51:47.824Z,12.83
2018-12-12T22:54:18.684Z,12.20
2018-12-12T22:56:48.720Z,13.90
2018-12-12T22:59:19.096Z,14.63
2018-12-12T23:01:49.229Z,14.30
2018-12-12T23:04:20.166Z,13.53
2018-12-12T23:06:50.421Z,19.73
2018-12-12T23:09:21.038Z,14.17
2018-12-12T23:11:51.620Z,15.23
2018-12-12T23:14:22.803Z,11.70
2018-12-12T23:16:53.306Z,14.20
2018-12-12T23:19:23.646Z,12.10
2018-12-12T23:21:54.057Z,10.73
2018-12-12T23:24:25.233Z,13.83
2018-12-12T23:26:55.963Z,12.63
2018-12-12T23:29:26.799Z,10.90
2018-12-12T23:31:57.498Z,10.47
2018-12-12T23:34:28.383Z,9.10
2018-12-12T23:36:58.683Z,9.70
2018-12-12T23:39:29.396Z,10.77
2018-12-12T23:41:59.967Z,9.57
2018-12-12T23:44:31.750Z,8.43
2018-12-12T23:47:02.298Z,8.53
2018-12-12T23:49:32.854Z,9.73
2018-12-12T23:52:03.240Z,8.97
2018-12-12T23:54:33.987Z,9.80
2018-12-12T23:57:04.561Z,8.57
2018-12-12T23:59:35.619Z,7.97
